Time;durP1;ratioP1;P1;durP2;ratioP2;P2;SDS_P1;SDS_P2;PMS_P1;PMS_P2;Temp;Humidity;BMP_temperature;BMP_pressure;BME280_temperature;BME280_humidity;BME280_pressure;Samples;Min_cycle;Max_cycle;Signal;HPM_P1;HPM_P2
2023/12/20 00:01:04;;;;;;;169.50;105.85;;;;;;;-0.99;100.00;93373.53;5122168;27;20119;-79
2023/12/20 00:03:33;;;;;;;194.27;111.93;;;;;;;-1.09;100.00;93368.50;5122657;27;20075;-79
2023/12/20 00:06:04;;;;;;;181.65;108.40;;;;;;;-1.09;100.00;93360.94;5117673;27;20572;-80
2023/12/20 00:08:31;;;;;;;179.68;108.97;;;;;;;-1.05;100.00;93358.94;5116736;27;20044;-79
2023/12/20 00:10:58;;;;;;;180.70;109.03;;;;;;;-0.85;100.00;93363.94;5116054;27;20133;-82
2023/12/20 00:13:25;;;;;;;173.63;107.05;;;;;;;-0.94;100.00;93368.06;5118696;27;20119;-80
2023/12/20 00:15:52;;;;;;;193.10;110.43;;;;;;;-0.86;100.00;93357.31;5118335;27;20942;-79
2023/12/20 00:18:19;;;;;;;162.15;102.28;;;;;;;-0.76;100.00;93363.13;5113995;27;20039;-79
2023/12/20 00:20:46;;;;;;;158.27;98.18;;;;;;;-0.70;100.00;93360.06;5113199;27;20050;-79
2023/12/20 00:23:14;;;;;;;159.73;100.28;;;;;;;-0.70;100.00;93362.56;5115539;27;20057;-80
2023/12/20 00:25:41;;;;;;;162.98;98.88;;;;;;;-0.63;100.00;93359.50;5117398;27;20070;-78
2023/12/20 00:28:08;;;;;;;174.07;103.65;;;;;;;-0.59;100.00;93355.78;5121456;27;20134;-79
2023/12/20 00:30:36;;;;;;;165.63;100.82;;;;;;;-0.72;100.00;93343.47;5120798;27;20043;-81
2023/12/20 00:33:03;;;;;;;175.90;106.78;;;;;;;-0.73;100.00;93346.91;5119793;27;20063;-81
2023/12/20 00:35:30;;;;;;;159.48;98.88;;;;;;;-0.63;100.00;93339.31;5119603;27;20051;-80
2023/12/20 00:37:56;;;;;;;170.90;105.30;;;;;;;-0.68;100.00;93332.16;5116936;27;20510;-81
2023/12/20 00:40:26;;;;;;;174.00;103.13;;;;;;;-0.57;100.00;93339.56;5117485;27;20491;-81
2023/12/20 00:42:53;;;;;;;175.10;105.10;;;;;;;-0.55;100.00;93336.91;5118612;27;20043;-82
2023/12/20 00:45:20;;;;;;;170.88;102.85;;;;;;;-0.57;100.00;93334.53;5115576;27;20479;-81
2023/12/20 00:47:47;;;;;;;156.90;100.10;;;;;;;-0.59;100.00;93331.34;5118095;27;20050;-81
2023/12/20 00:50:14;;;;;;;174.32;102.32;;;;;;;-0.54;100.00;93331.69;5118419;27;20138;-80
2023/12/20 00:52:41;;;;;;;152.38;98.05;;;;;;;-0.69;100.00;93311.19;5115123;27;20081;-80
2023/12/20 00:55:08;;;;;;;158.93;100.68;;;;;;;-0.63;100.00;93327.50;5109524;27;20065;-80
2023/12/20 00:57:37;;;;;;;180.38;102.53;;;;;;;-0.49;100.00;93330.50;5122319;27;20054;-81
2023/12/20 01:00:04;;;;;;;171.00;99.40;;;;;;;-0.47;100.00;93328.66;5113206;27;20578;-78
2023/12/20 01:02:31;;;;;;;162.45;93.97;;;;;;;-0.55;100.00;93312.47;5118490;27;20936;-79
2023/12/20 01:04:58;;;;;;;168.93;94.38;;;;;;;-0.64;100.00;93313.31;5116001;27;20051;-81
2023/12/20 01:07:25;;;;;;;154.95;93.03;;;;;;;-0.60;100.00;93311.31;5121514;27;20043;-78
2023/12/20 01:09:52;;;;;;;152.43;91.80;;;;;;;-0.59;100.00;93317.94;5114508;27;20130;-78
2023/12/20 01:12:17;;;;;;;147.93;88.43;;;;;;;-0.67;100.00;93311.06;5120047;27;20069;-78
2023/12/20 01:14:46;;;;;;;140.60;90.63;;;;;;;-0.64;100.00;93313.31;5118696;27;20050;-78
2023/12/20 01:17:13;;;;;;;145.65;86.90;;;;;;;-0.87;100.00;93292.66;5114686;27;20048;-78
2023/12/20 01:19:40;;;;;;;136.38;87.75;;;;;;;-0.85;100.00;93303.41;5107684;28;20484;-78
2023/12/20 01:22:07;;;;;;;130.95;85.55;;;;;;;-0.85;100.00;93301.69;5120052;27;20126;-78
2023/12/20 01:24:34;;;;;;;164.05;94.75;;;;;;;-0.84;100.00;93303.28;5116284;27;20053;-77
2023/12/20 01:27:02;;;;;;;145.93;90.55;;;;;;;-0.90;100.00;93301.31;5118858;27;20126;-78
2023/12/20 01:29:29;;;;;;;144.38;91.18;;;;;;;-1.01;100.00;93283.81;5119281;27;20133;-78
2023/12/20 01:31:57;;;;;;;156.82;93.88;;;;;;;-0.88;100.00;93288.56;5117415;27;20043;-78
2023/12/20 01:34:24;;;;;;;180.57;102.57;;;;;;;-1.06;100.00;93265.78;5122446;27;20178;-78
2023/12/20 01:36:51;;;;;;;146.52;91.30;;;;;;;-1.07;100.00;93275.06;5120406;27;20065;-78
2023/12/20 01:39:18;;;;;;;137.82;86.88;;;;;;;-1.03;100.00;93285.69;5114137;27;20039;-78
2023/12/20 01:41:45;;;;;;;149.93;92.43;;;;;;;-1.03;100.00;93280.66;5115175;27;20046;-78
2023/12/20 01:44:12;;;;;;;134.38;85.03;;;;;;;-0.99;100.00;93279.41;5119529;27;20040;-78
2023/12/20 01:46:39;;;;;;;136.50;87.38;;;;;;;-0.95;100.00;93280.75;5117634;27;20043;-79
2023/12/20 01:49:08;;;;;;;138.32;88.43;;;;;;;-0.99;100.00;93264.28;5108888;27;20494;-79
2023/12/20 01:51:36;;;;;;;135.70;86.43;;;;;;;-1.05;100.00;93260.59;5114946;27;20053;-78
2023/12/20 01:54:04;;;;;;;135.85;84.35;;;;;;;-1.15;100.00;93235.41;5115271;27;20044;-82
2023/12/20 01:56:32;;;;;;;131.90;84.78;;;;;;;-0.95;100.00;93258.84;5117298;27;20107;-80
2023/12/20 01:58:59;;;;;;;132.02;81.90;;;;;;;-0.96;100.00;93253.94;5115601;27;20510;-81
2023/12/20 02:01:28;;;;;;;155.75;85.22;;;;;;;-0.97;100.00;93250.63;5121452;27;20081;-80
2023/12/20 02:03:55;;;;;;;139.00;82.28;;;;;;;-1.04;100.00;93248.78;5116662;27;20040;-80
2023/12/20 02:06:25;;;;;;;123.40;76.90;;;;;;;-0.98;100.00;93241.47;5117681;27;20499;-80
2023/12/20 02:08:52;;;;;;;135.38;79.35;;;;;;;-1.09;100.00;93242.44;5116288;27;20048;-81
2023/12/20 02:11:19;;;;;;;144.70;85.10;;;;;;;-1.01;100.00;93238.44;5121212;27;20129;-79
2023/12/20 02:13:46;;;;;;;130.85;81.93;;;;;;;-1.29;100.00;93203.88;5116615;27;20417;-80
2023/12/20 02:16:16;;;;;;;135.05;84.68;;;;;;;-1.00;100.00;93229.94;5118454;27;20154;-81
2023/12/20 02:18:44;;;;;;;147.75;86.90;;;;;;;-0.90;100.00;93227.38;5120458;27;20125;-81
2023/12/20 02:21:11;;;;;;;129.80;82.18;;;;;;;-1.05;100.00;93211.91;5119417;27;20040;-81
2023/12/20 02:23:39;;;;;;;144.55;85.38;;;;;;;-0.89;100.00;93223.94;5119522;27;20045;-81
2023/12/20 02:26:07;;;;;;;138.93;85.50;;;;;;;-1.00;100.00;93209.75;5115918;27;20122;-80
2023/12/20 02:28:34;;;;;;;134.50;85.38;;;;;;;-0.93;100.00;93213.31;5124228;27;20058;-81
2023/12/20 02:31:01;;;;;;;143.40;86.20;;;;;;;-0.97;100.00;93206.97;5115482;27;20138;-81
2023/12/20 02:33:28;;;;;;;142.68;86.90;;;;;;;-0.86;100.00;93214.34;5107430;27;20392;-81
2023/12/20 02:35:55;;;;;;;140.20;84.30;;;;;;;-0.83;100.00;93209.00;5107612;27;20052;-81
2023/12/20 02:38:22;;;;;;;153.27;91.95;;;;;;;-0.85;100.00;93208.38;5109425;27;20122;-81
2023/12/20 02:40:50;;;;;;;150.10;88.00;;;;;;;-0.87;100.00;93212.78;5107804;28;20047;-81
2023/12/20 02:43:17;;;;;;;150.13;91.30;;;;;;;-0.96;100.00;93198.47;5109248;27;20054;-80
2023/12/20 02:45:44;;;;;;;147.15;89.32;;;;;;;-0.86;100.00;93206.78;5107164;28;20151;-80
2023/12/20 02:48:11;;;;;;;139.85;85.68;;;;;;;-1.06;100.00;93182.59;5108219;28;20084;-80
2023/12/20 02:50:38;;;;;;;169.35;98.05;;;;;;;-0.90;100.00;93200.44;5111847;28;20050;-80
2023/12/20 02:53:05;;;;;;;144.80;89.88;;;;;;;-0.97;100.00;93206.97;5110430;27;20048;-80
2023/12/20 02:55:32;;;;;;;179.30;102.22;;;;;;;-0.99;100.00;93206.31;5111755;28;20135;-78
2023/12/20 02:58:00;;;;;;;141.43;86.95;;;;;;;-1.00;100.00;93209.75;5107287;28;20044;-79
2023/12/20 03:00:27;;;;;;;144.60;88.07;;;;;;;-0.97;100.00;93201.94;5107072;28;20050;-79
2023/12/20 03:02:54;;;;;;;154.90;94.72;;;;;;;-1.06;100.00;93202.75;5109072;28;20170;-79
2023/12/20 03:05:21;;;;;;;167.38;97.95;;;;;;;-1.17;100.00;93193.66;5109397;28;20517;-79
2023/12/20 03:07:48;;;;;;;144.52;91.70;;;;;;;-1.02;100.00;93197.28;5107095;28;20051;-78
2023/12/20 03:10:15;;;;;;;145.85;90.22;;;;;;;-1.04;100.00;93199.16;5107150;28;20047;-79
2023/12/20 03:12:42;;;;;;;154.18;90.90;;;;;;;-1.05;100.00;93207.66;5107659;28;20051;-78
2023/12/20 03:15:11;;;;;;;147.07;89.97;;;;;;;-1.13;100.00;93167.22;5116939;27;20131;-80
2023/12/20 03:17:38;;;;;;;147.07;89.38;;;;;;;-0.98;100.00;93203.66;5106311;28;20127;-78
2023/12/20 03:20:06;;;;;;;148.55;89.30;;;;;;;-1.07;100.00;93199.44;5126218;28;20161;-77
2023/12/20 03:22:34;;;;;;;141.55;88.10;;;;;;;-0.97;100.00;93190.09;5118162;27;20054;-77
2023/12/20 03:25:01;;;;;;;144.38;87.05;;;;;;;-1.08;100.00;93181.00;5110652;27;20084;-78
2023/12/20 03:27:28;;;;;;;134.55;81.72;;;;;;;-1.00;100.00;93192.09;5111277;27;20051;-79
2023/12/20 03:29:55;;;;;;;128.82;79.85;;;;;;;-1.14;100.00;93170.66;5111525;27;20455;-79
2023/12/20 03:32:23;;;;;;;114.93;74.93;;;;;;;-1.03;100.00;93177.28;5110773;27;20087;-78
2023/12/20 03:34:50;;;;;;;139.18;83.25;;;;;;;-1.01;100.00;93183.78;5112616;27;20491;-77
2023/12/20 03:37:17;;;;;;;139.55;84.70;;;;;;;-1.08;100.00;93183.53;5110263;28;20044;-78
2023/12/20 03:39:44;;;;;;;141.70;82.18;;;;;;;-1.05;100.00;93176.59;5111605;27;20053;-79
2023/12/20 03:42:11;;;;;;;134.10;83.80;;;;;;;-1.08;100.00;93170.13;5113209;27;20402;-78
2023/12/20 03:44:39;;;;;;;134.00;82.03;;;;;;;-1.14;100.00;93174.00;5110662;27;20047;-78
2023/12/20 03:47:06;;;;;;;126.10;81.57;;;;;;;-1.16;100.00;93170.81;5129581;27;20059;-78
2023/12/20 03:49:36;;;;;;;130.43;79.88;;;;;;;-1.23;100.00;93157.97;5129030;27;20058;-78
2023/12/20 03:52:04;;;;;;;133.35;80.68;;;;;;;-1.46;100.00;93129.00;5115092;27;20954;-78
2023/12/20 03:54:31;;;;;;;144.55;87.13;;;;;;;-1.31;100.00;93154.56;5112865;27;20043;-78
2023/12/20 03:56:58;;;;;;;158.13;87.47;;;;;;;-1.30;100.00;93167.00;5110583;28;20420;-78
2023/12/20 03:59:25;;;;;;;148.98;84.88;;;;;;;-1.48;100.00;93146.81;5110186;27;20388;-78
2023/12/20 04:01:51;;;;;;;149.15;86.95;;;;;;;-1.58;100.00;93161.16;5110557;27;20048;-80
2023/12/20 04:04:18;;;;;;;135.82;82.38;;;;;;;-1.58;100.00;93154.38;5110291;27;20040;-79
2023/12/20 04:06:47;;;;;;;133.50;81.95;;;;;;;-1.57;100.00;93155.16;5116317;27;20073;-80
2023/12/20 04:09:14;;;;;;;137.88;85.20;;;;;;;-1.64;100.00;93145.66;5110787;27;20054;-78
2023/12/20 04:11:41;;;;;;;131.10;82.00;;;;;;;-1.57;100.00;93147.63;5112114;27;20047;-78
2023/12/20 04:14:08;;;;;;;131.60;80.15;;;;;;;-1.70;100.00;93148.72;5109731;27;20517;-76
2023/12/20 04:16:36;;;;;;;125.40;80.85;;;;;;;-1.61;100.00;93142.06;5111153;27;20380;-78
2023/12/20 04:19:03;;;;;;;122.93;78.78;;;;;;;-1.69;100.00;93124.31;5113531;27;20129;-78
2023/12/20 04:21:30;;;;;;;121.25;78.47;;;;;;;-1.52;100.00;93145.47;5114469;27;20044;-79
2023/12/20 04:23:58;;;;;;;127.50;81.93;;;;;;;-1.54;100.00;93139.75;5110217;27;20130;-76
2023/12/20 04:26:25;;;;;;;146.40;84.97;;;;;;;-1.51;100.00;93136.97;5109843;27;20050;-78
2023/12/20 04:28:52;;;;;;;140.90;82.07;;;;;;;-1.76;100.00;93124.06;5110584;27;20413;-80
2023/12/20 04:31:19;;;;;;;125.68;76.90;;;;;;;-1.65;100.00;93134.00;5109937;27;20134;-79
2023/12/20 04:33:46;;;;;;;134.00;78.93;;;;;;;-1.57;100.00;93117.38;5110063;27;20062;-80
2023/12/20 04:36:13;;;;;;;134.00;81.95;;;;;;;-1.59;100.00;93126.81;5110844;27;20071;-80
2023/12/20 04:38:40;;;;;;;127.72;76.47;;;;;;;-1.73;100.00;93123.78;5109977;27;20414;-80
2023/12/20 04:41:08;;;;;;;111.03;69.95;;;;;;;-1.82;100.00;93124.59;5109460;27;20158;-82
2023/12/20 04:43:35;;;;;;;101.63;68.03;;;;;;;-1.96;100.00;93105.69;5117962;27;20126;-81
2023/12/20 04:48:50;;;;;;;116.22;72.82;;;;;;;-2.09;100.00;93123.59;5110628;27;20475;-82
2023/12/20 04:51:17;;;;;;;112.57;69.10;;;;;;;-2.29;100.00;93113.53;5109730;27;20458;-82
2023/12/20 04:56:46;;;;;;;103.78;67.75;;;;;;;-2.59;100.00;93062.47;5107849;27;20527;-82
2023/12/20 04:59:47;;;;;;;108.65;70.53;;;;;;;-3.16;100.00;92975.16;5113620;27;20500;-79
2023/12/20 05:08:51;;;;;;;118.15;75.05;;;;;;;-2.07;100.00;93115.00;5011671;28;20100;-79
2023/12/20 05:11:18;;;;;;;126.78;77.55;;;;;;;-2.16;100.00;93103.97;5040126;28;20048;-80
2023/12/20 05:13:47;;;;;;;122.10;76.85;;;;;;;-2.06;100.00;93109.03;5112479;27;20570;-79
2023/12/20 05:16:45;;;;;;;141.27;92.15;;;;;;;-2.06;100.00;93101.47;5109148;27;20105;-80
2023/12/20 05:19:12;;;;;;;139.88;89.90;;;;;;;-1.93;100.00;93100.38;5124456;27;20047;-79
2023/12/20 05:21:39;;;;;;;136.43;86.50;;;;;;;-1.98;100.00;93093.25;5108189;27;20090;-77
2023/12/20 05:24:06;;;;;;;124.65;81.50;;;;;;;-2.14;100.00;93061.06;5110382;27;20041;-77
2023/12/20 05:26:33;;;;;;;117.72;76.75;;;;;;;-2.07;100.00;93084.00;5111036;27;20134;-79
2023/12/20 05:29:02;;;;;;;120.65;77.63;;;;;;;-1.96;100.00;93093.09;5127486;27;20135;-79
2023/12/20 05:31:28;;;;;;;112.55;70.40;;;;;;;-2.04;100.00;93084.50;5117134;27;20051;-79
2023/12/20 05:33:55;;;;;;;120.20;75.60;;;;;;;-1.89;100.00;93087.38;5126932;27;20061;-79
2023/12/20 05:36:22;;;;;;;118.32;75.45;;;;;;;-1.86;100.00;93070.44;5119285;27;20047;-80
2023/12/20 05:38:49;;;;;;;124.82;78.57;;;;;;;-1.83;100.00;93083.53;5108872;27;20264;-79
2023/12/20 05:41:16;;;;;;;128.27;78.15;;;;;;;-1.84;100.00;93081.16;5113351;27;20122;-79
2023/12/20 05:43:43;;;;;;;126.03;80.50;;;;;;;-1.90;100.00;93068.19;5109016;27;20106;-79
2023/12/20 05:46:13;;;;;;;145.13;81.90;;;;;;;-1.84;100.00;93079.44;5109599;27;20555;-79
2023/12/20 05:48:40;;;;;;;133.65;81.80;;;;;;;-1.91;100.00;93065.78;5108325;28;20054;-79
2023/12/20 05:51:06;;;;;;;148.50;86.03;;;;;;;-1.78;100.00;93076.38;5110437;27;20696;-79
2023/12/20 05:53:33;;;;;;;145.10;86.45;;;;;;;-1.88;100.00;93060.50;5108589;27;20058;-79
2023/12/20 05:56:00;;;;;;;154.07;86.93;;;;;;;-1.80;100.00;93064.84;5109314;27;20131;-79
2023/12/20 05:58:27;;;;;;;153.57;86.97;;;;;;;-1.89;100.00;93054.66;5108731;27;20052;-79
2023/12/20 06:00:54;;;;;;;149.35;84.03;;;;;;;-1.83;100.00;93065.91;5117505;27;20053;-79
2023/12/20 06:03:23;;;;;;;138.43;82.38;;;;;;;-1.72;100.00;93059.13;5111091;27;20043;-79
2023/12/20 06:05:50;;;;;;;142.98;84.22;;;;;;;-1.75;100.00;93065.22;5110325;27;20054;-79
2023/12/20 06:08:17;;;;;;;155.30;89.28;;;;;;;-1.66;100.00;93056.81;5110474;27;20520;-79
2023/12/20 06:10:44;;;;;;;177.07;103.55;;;;;;;-1.77;100.00;93045.22;5108413;27;20047;-79
2023/12/20 06:13:12;;;;;;;196.57;110.30;;;;;;;-1.65;100.00;93050.06;5109323;27;20084;-79
2023/12/20 06:15:39;;;;;;;148.25;86.75;;;;;;;-1.60;100.00;93055.47;5109314;27;20128;-78
2023/12/20 06:18:06;;;;;;;147.27;84.38;;;;;;;-1.82;100.00;93026.41;5108504;27;20635;-78
2023/12/20 06:20:35;;;;;;;211.57;117.03;;;;;;;-1.54;100.00;93066.72;5113586;27;20161;-79
2023/12/20 06:23:02;;;;;;;159.85;92.00;;;;;;;-1.76;100.00;93041.75;5108649;27;20071;-79
2023/12/20 06:25:29;;;;;;;147.70;85.22;;;;;;;-1.65;100.00;93060.94;5113102;27;20044;-79
2023/12/20 06:27:55;;;;;;;159.38;86.15;;;;;;;-1.70;100.00;93047.97;5118558;27;20061;-78
2023/12/20 06:30:24;;;;;;;154.20;89.70;;;;;;;-1.65;100.00;93060.16;5115668;27;20047;-78
2023/12/20 06:32:52;;;;;;;144.75;82.72;;;;;;;-1.58;100.00;93065.44;5117107;27;20858;-78
2023/12/20 06:35:19;;;;;;;150.50;86.88;;;;;;;-1.56;100.00;93064.34;5110803;27;20144;-79
2023/12/20 06:37:48;;;;;;;216.95;106.30;;;;;;;-1.78;100.00;93060.44;5111005;27;20508;-79
2023/12/20 06:40:15;;;;;;;166.75;95.00;;;;;;;-1.86;100.00;93057.84;5114791;27;20047;-78
2023/12/20 06:42:43;;;;;;;151.25;88.80;;;;;;;-1.75;100.00;93070.25;5111401;27;20129;-79
2023/12/20 06:45:11;;;;;;;162.43;91.80;;;;;;;-1.77;100.00;93064.56;5110906;27;20054;-78
2023/12/20 06:47:38;;;;;;;166.10;95.18;;;;;;;-1.74;100.00;93054.22;5115504;27;20050;-78
2023/12/20 06:50:05;;;;;;;170.27;93.32;;;;;;;-1.61;100.00;93063.97;5108563;27;20496;-78
2023/12/20 06:52:32;;;;;;;154.07;91.78;;;;;;;-1.58;100.00;93066.19;5113035;27;20129;-79
2023/12/20 06:55:01;;;;;;;158.05;90.10;;;;;;;-1.46;100.00;93061.78;5117168;28;20054;-78
2023/12/20 06:57:27;;;;;;;160.18;96.85;;;;;;;-1.52;100.00;93059.81;5109741;28;20043;-79
2023/12/20 06:59:55;;;;;;;168.32;99.47;;;;;;;-1.49;100.00;93049.47;5107023;28;20946;-78
2023/12/20 07:02:22;;;;;;;159.35;90.22;;;;;;;-1.45;100.00;93057.56;5109466;27;20093;-78
2023/12/20 07:04:49;;;;;;;161.02;94.75;;;;;;;-1.54;100.00;93051.59;5109604;27;20047;-79
2023/12/20 07:07:16;;;;;;;153.82;91.57;;;;;;;-1.34;100.00;93047.28;5111291;27;20529;-78
2023/12/20 07:09:43;;;;;;;146.35;87.53;;;;;;;-1.78;100.00;93032.75;5111566;28;20050;-77
2023/12/20 07:12:11;;;;;;;159.90;88.28;;;;;;;-1.93;100.00;93025.66;5110569;28;20044;-78
2023/12/20 07:14:38;;;;;;;158.05;88.65;;;;;;;-2.03;100.00;93040.00;5124736;27;20558;-78
2023/12/20 07:17:07;;;;;;;161.45;87.30;;;;;;;-1.92;100.00;93028.97;5126395;27;20051;-78
2023/12/20 07:19:33;;;;;;;167.55;92.15;;;;;;;-1.92;100.00;93026.44;5112417;27;20054;-78
2023/12/20 07:22:00;;;;;;;167.77;90.95;;;;;;;-1.76;100.00;93026.66;5111027;28;20085;-78
2023/12/20 07:24:27;;;;;;;171.35;95.85;;;;;;;-1.61;100.00;93026.97;5107962;28;20047;-78
2023/12/20 07:26:54;;;;;;;178.27;91.55;;;;;;;-1.66;100.00;93025.81;5109047;28;20063;-78
2023/12/20 07:29:22;;;;;;;166.32;89.55;;;;;;;-1.85;100.00;93017.41;5108913;28;20162;-78
2023/12/20 07:31:51;;;;;;;183.40;93.07;;;;;;;-1.65;100.00;93020.66;5107569;28;20043;-78
2023/12/20 07:34:19;;;;;;;158.32;90.03;;;;;;;-1.75;100.00;93008.09;5107112;28;20051;-78
2023/12/20 07:36:46;;;;;;;183.65;99.43;;;;;;;-1.68;100.00;93008.31;5107750;28;20079;-78
2023/12/20 07:39:13;;;;;;;207.18;109.05;;;;;;;-1.59;100.00;93013.47;5108338;28;20047;-78
2023/12/20 07:41:40;;;;;;;190.15;102.22;;;;;;;-1.65;100.00;93002.22;5116361;27;20051;-78
2023/12/20 07:44:07;;;;;;;163.90;95.75;;;;;;;-1.53;100.00;93008.63;5108652;28;20043;-78
2023/12/20 07:46:35;;;;;;;181.85;102.38;;;;;;;-1.31;100.00;93003.38;5108844;28;20050;-78
2023/12/20 07:49:02;;;;;;;164.00;97.78;;;;;;;-1.24;100.00;92984.22;5109367;28;20058;-80
2023/12/20 07:51:29;;;;;;;163.63;100.40;;;;;;;-0.99;100.00;92997.84;5108315;28;20065;-80
2023/12/20 07:53:56;;;;;;;136.57;80.68;;;;;;;-1.18;100.00;93005.53;5111084;28;20051;-79
2023/12/20 07:56:23;;;;;;;134.13;80.88;;;;;;;-1.01;100.00;92997.19;5114198;28;20059;-79
2023/12/20 07:58:50;;;;;;;129.90;78.50;;;;;;;-1.10;100.00;92996.31;5114511;27;20058;-80
2023/12/20 08:01:18;;;;;;;124.07;76.70;;;;;;;-0.93;100.00;92988.88;5107165;28;20058;-80
2023/12/20 08:03:46;;;;;;;134.15;83.53;;;;;;;-1.14;100.00;92989.19;5107823;27;20047;-80
2023/12/20 08:06:13;;;;;;;139.20;84.20;;;;;;;-0.72;100.00;92988.59;5115702;27;20618;-79
2023/12/20 08:08:40;;;;;;;110.55;66.22;;;;;;;-0.34;100.00;92990.09;5112396;27;20049;-80
2023/12/20 08:11:07;;;;;;;97.68;60.05;;;;;;;-0.06;100.00;92992.47;5109510;27;20166;-80
2023/12/20 08:13:34;;;;;;;77.72;48.00;;;;;;;-0.23;100.00;92991.59;5114057;27;20055;-79
2023/12/20 08:16:02;;;;;;;78.25;46.15;;;;;;;-0.04;100.00;92986.31;5111708;27;20047;-79
2023/12/20 08:18:29;;;;;;;72.93;48.08;;;;;;;0.08;100.00;92983.53;5110931;27;20473;-80
2023/12/20 08:20:58;;;;;;;69.35;44.15;;;;;;;0.24;100.00;92991.19;5112901;27;20130;-80
2023/12/20 08:23:25;;;;;;;67.57;44.90;;;;;;;0.28;100.00;92978.25;5110558;27;20047;-79
2023/12/20 08:25:52;;;;;;;74.53;47.22;;;;;;;0.35;100.00;92969.13;5110585;27;20134;-79
2023/12/20 08:28:19;;;;;;;74.13;47.17;;;;;;;0.53;100.00;92972.34;5116821;27;20075;-80
2023/12/20 08:30:46;;;;;;;80.97;50.25;;;;;;;0.65;100.00;92975.38;5111246;27;20950;-79
2023/12/20 08:33:13;;;;;;;83.25;53.83;;;;;;;0.73;100.00;92981.38;5112029;27;20054;-79
2023/12/20 08:35:40;;;;;;;82.25;50.13;;;;;;;0.77;100.00;92973.34;5116946;27;20135;-80
2023/12/20 08:38:08;;;;;;;74.30;46.33;;;;;;;0.87;100.00;92968.13;5110450;27;20479;-79
2023/12/20 08:40:35;;;;;;;74.50;47.63;;;;;;;0.70;100.00;92961.47;5110337;27;20506;-79
2023/12/20 08:43:02;;;;;;;76.53;47.58;;;;;;;0.80;100.00;92949.50;5119500;27;20130;-79
2023/12/20 08:45:29;;;;;;;76.53;48.60;;;;;;;0.80;100.00;92941.91;5112348;27;20043;-79
2023/12/20 08:47:56;;;;;;;75.43;48.42;;;;;;;0.90;100.00;92955.19;5123539;27;20074;-79
2023/12/20 08:50:23;;;;;;;77.47;48.97;;;;;;;0.95;100.00;92953.91;5118091;27;20047;-79
2023/12/20 08:52:50;;;;;;;72.78;47.33;;;;;;;0.56;100.00;92945.97;5110263;27;20404;-79
2023/12/20 08:55:19;;;;;;;75.40;48.00;;;;;;;0.76;100.00;92946.50;5110191;27;20533;-78
2023/12/20 08:57:45;;;;;;;75.47;50.00;;;;;;;0.30;100.00;92938.47;5112135;27;20043;-79
2023/12/20 09:00:14;;;;;;;80.25;52.67;;;;;;;0.59;100.00;92934.75;5109810;27;20054;-79
2023/12/20 09:02:41;;;;;;;83.82;52.75;;;;;;;0.66;100.00;92916.28;5108875;28;20395;-79
2023/12/20 09:05:08;;;;;;;84.97;55.42;;;;;;;0.36;100.00;92925.22;5109818;27;20058;-80
2023/12/20 09:07:35;;;;;;;84.93;53.72;;;;;;;0.71;100.00;92925.13;5110006;27;20051;-80
2023/12/20 09:10:02;;;;;;;89.68;59.58;;;;;;;0.64;100.00;92908.06;5110201;27;20130;-80
2023/12/20 09:12:31;;;;;;;95.32;56.35;;;;;;;0.82;100.00;92908.88;5111139;27;20040;-80
2023/12/20 09:15:02;;;;;;;79.45;54.22;;;;;;;1.02;100.00;92905.06;5109580;27;20048;-80
2023/12/20 09:17:29;;;;;;;84.63;57.50;;;;;;;1.20;100.00;92901.56;5109292;27;20549;-80
2023/12/20 09:19:56;;;;;;;86.30;53.42;;;;;;;1.17;100.00;92882.44;5111371;27;20066;-79
2023/12/20 09:22:23;;;;;;;85.60;55.00;;;;;;;1.30;100.00;92894.63;5109065;27;20058;-79
2023/12/20 09:24:50;;;;;;;97.30;63.30;;;;;;;1.41;100.00;92878.31;5114532;27;20051;-79
2023/12/20 09:27:20;;;;;;;99.53;63.40;;;;;;;1.33;100.00;92878.31;5114713;27;20093;-79
2023/12/20 09:29:49;;;;;;;92.00;58.67;;;;;;;1.64;100.00;92875.09;5119158;27;20071;-79
2023/12/20 09:32:16;;;;;;;95.55;62.08;;;;;;;1.64;100.00;92866.69;5113173;27;20047;-78
2023/12/20 09:34:43;;;;;;;94.20;59.03;;;;;;;1.70;100.00;92864.31;5109377;27;20047;-78
2023/12/20 09:37:10;;;;;;;84.03;56.03;;;;;;;1.87;100.00;92852.34;5125813;27;20055;-79
2023/12/20 09:39:37;;;;;;;89.47;56.25;;;;;;;1.93;100.00;92842.53;5109905;27;20051;-78
2023/12/20 09:42:05;;;;;;;96.10;58.38;;;;;;;2.09;100.00;92834.06;5111121;27;20047;-78
2023/12/20 09:44:34;;;;;;;83.80;55.22;;;;;;;2.29;100.00;92834.41;5121551;27;20133;-78
2023/12/20 09:47:04;;;;;;;85.55;52.50;;;;;;;2.13;100.00;92840.38;5113412;27;20043;-78
2023/12/20 09:49:31;;;;;;;87.68;53.75;;;;;;;2.42;100.00;92838.13;5118956;27;20043;-78
2023/12/20 09:52:00;;;;;;;85.53;56.10;;;;;;;2.52;100.00;92829.38;5115516;27;20043;-78
2023/12/20 09:54:29;;;;;;;89.90;55.78;;;;;;;2.45;100.00;92822.59;5112614;27;20452;-79
2023/12/20 09:56:56;;;;;;;89.97;55.65;;;;;;;2.36;100.00;92807.44;5108780;27;20051;-79
2023/12/20 09:59:23;;;;;;;81.55;56.38;;;;;;;2.24;100.00;92811.31;5114277;27;20159;-78
2023/12/20 10:01:51;;;;;;;88.15;55.40;;;;;;;2.44;100.00;92806.59;5127615;27;20069;-78
2023/12/20 10:04:20;;;;;;;84.32;54.40;;;;;;;2.36;100.00;92799.84;5127901;27;20125;-79
2023/12/20 10:06:47;;;;;;;82.65;52.85;;;;;;;2.01;100.00;92794.34;5112310;27;20051;-79
2023/12/20 10:09:14;;;;;;;80.47;53.42;;;;;;;1.98;100.00;92790.41;5110546;27;20044;-80
2023/12/20 10:11:41;;;;;;;85.07;55.30;;;;;;;1.98;100.00;92774.41;5109093;27;20054;-79
2023/12/20 10:14:08;;;;;;;86.35;58.15;;;;;;;2.24;100.00;92788.53;5111793;27;20095;-80
2023/12/20 10:16:35;;;;;;;94.25;59.22;;;;;;;2.37;100.00;92780.34;5114881;27;20054;-80
2023/12/20 10:19:02;;;;;;;83.40;55.58;;;;;;;2.36;100.00;92774.47;5122512;27;20130;-80
2023/12/20 10:21:31;;;;;;;91.15;59.42;;;;;;;2.57;100.00;92777.34;5112207;27;20297;-80
2023/12/20 10:23:58;;;;;;;88.00;60.40;;;;;;;2.56;100.00;92775.75;5108803;27;20092;-79
2023/12/20 10:26:27;;;;;;;99.63;67.28;;;;;;;2.65;100.00;92777.28;5109030;27;20050;-79
2023/12/20 10:28:55;;;;;;;100.75;68.68;;;;;;;2.59;100.00;92763.53;5110605;27;20444;-79
2023/12/20 10:31:30;;;;;;;101.22;70.40;;;;;;;2.74;100.00;92762.78;5113369;27;20494;-80
2023/12/20 10:33:59;;;;;;;99.20;67.82;;;;;;;2.71;100.00;92750.44;5116025;27;20414;-79
2023/12/20 10:36:27;;;;;;;103.40;69.63;;;;;;;2.86;100.00;92745.41;5108523;27;20075;-80
2023/12/20 10:38:58;;;;;;;101.13;69.93;;;;;;;2.94;100.00;92738.50;5110747;27;20043;-80
2023/12/20 10:41:28;;;;;;;99.95;68.50;;;;;;;2.81;100.00;92710.38;5108168;28;20053;-80
2023/12/20 10:43:59;;;;;;;99.10;66.15;;;;;;;2.96;100.00;92729.91;5108890;27;20064;-79
2023/12/20 10:46:28;;;;;;;93.28;62.80;;;;;;;3.04;100.00;92719.66;5108203;27;20044;-79
2023/12/20 10:48:55;;;;;;;93.25;62.15;;;;;;;2.62;100.00;92711.69;5120020;27;20047;-80
2023/12/20 10:51:24;;;;;;;92.05;62.33;;;;;;;2.66;100.00;92713.72;5113202;27;20412;-78
2023/12/20 10:53:51;;;;;;;88.25;58.28;;;;;;;2.64;100.00;92707.25;5108002;28;20139;-78
2023/12/20 10:56:20;;;;;;;82.75;57.13;;;;;;;2.66;100.00;92697.72;5109302;27;20441;-79
2023/12/20 10:58:49;;;;;;;85.75;56.97;;;;;;;2.89;100.00;92697.63;5108123;27;20140;-79
2023/12/20 11:01:17;;;;;;;85.40;54.83;;;;;;;2.88;100.00;92663.06;5108070;28;20549;-79
2023/12/20 11:03:49;;;;;;;82.05;54.10;;;;;;;3.06;100.00;92684.78;5108041;28;20083;-79
2023/12/20 11:06:35;;;;;;;85.97;53.92;;;;;;;3.09;100.00;92678.56;5110022;28;20059;-79
2023/12/20 11:09:13;;;;;;;83.25;52.35;;;;;;;3.12;100.00;92668.03;5117431;28;20043;-78
2023/12/20 11:11:57;;;;;;;75.63;51.50;;;;;;;3.23;100.00;92675.19;5122137;27;20054;-79
2023/12/20 11:14:28;;;;;;;74.35;49.53;;;;;;;3.17;100.00;92658.94;5112129;28;20432;-79
2023/12/20 11:17:07;;;;;;;80.63;52.10;;;;;;;3.36;100.00;92656.00;5110416;28;20035;-79
2023/12/20 11:19:36;;;;;;;79.10;50.25;;;;;;;3.33;100.00;92617.31;5106851;28;20105;-80